Time;durP1;ratioP1;P1;durP2;ratioP2;P2;SDS_P1;SDS_P2;PMS_P1;PMS_P2;Temp;Humidity;BMP_temperature;BMP_pressure;BME280_temperature;BME280_humidity;BME280_pressure;Samples;Min_cycle;Max_cycle;Signal;HPM_P1;HPM_P2
2022/10/19 00:01:18;;;;;;;12.50;6.97;;;256.30;2252.80;;;;;;5023218;28;20055;-80
2022/10/19 00:03:47;;;;;;;18.88;7.55;;;256.20;2252.80;;;;;;5031154;28;20025;-80
2022/10/19 00:06:26;;;;;;;11.77;7.57;;;256.40;2252.80;;;;;;5024270;28;20028;-79
2022/10/19 00:08:55;;;;;;;13.07;7.57;;;256.60;2252.80;;;;;;5038091;28;20474;-80
2022/10/19 00:11:22;;;;;;;19.05;7.93;;;256.50;2252.80;;;;;;5034529;28;20029;-80
2022/10/19 00:13:48;;;;;;;15.80;8.70;;;256.50;2252.80;;;;;;5034334;28;20074;-80
2022/10/19 00:16:15;;;;;;;17.25;9.82;;;256.50;2252.80;;;;;;5017958;28;20095;-80
2022/10/19 00:18:43;;;;;;;16.38;9.13;;;256.50;2252.80;;;;;;5032261;28;20032;-80
2022/10/19 00:21:11;;;;;;;16.77;9.02;;;256.50;2252.80;;;;;;5037668;28;20044;-81
2022/10/19 00:23:37;;;;;;;15.98;8.90;;;256.60;2252.80;;;;;;5025289;28;20072;-80
2022/10/19 00:26:03;;;;;;;16.98;9.05;;;256.50;2252.80;;;;;;5031266;28;20121;-80
2022/10/19 00:28:29;;;;;;;16.58;8.13;;;256.40;2252.80;;;;;;5035604;28;20112;-80
2022/10/19 00:30:55;;;;;;;16.10;8.85;;;256.20;2252.80;;;;;;5052457;28;20024;-81
2022/10/19 00:33:21;;;;;;;15.18;8.15;;;256.50;2252.80;;;;;;5037393;28;20108;-80
2022/10/19 00:35:49;;;;;;;16.80;9.30;;;256.10;2252.80;;;;;;5023347;28;20025;-80
2022/10/19 00:38:17;;;;;;;18.00;9.05;;;256.30;2252.80;;;;;;5037751;28;20029;-80
2022/10/19 00:40:43;;;;;;;25.48;10.40;;;256.20;2252.80;;;;;;5024530;28;20858;-82
2022/10/19 00:43:30;;;;;;;16.85;8.52;;;256.70;2252.80;;;;;;5012537;28;20032;-80
2022/10/19 00:45:55;;;;;;;;;;;256.40;2252.80;;;;;;5005993;28;20113;-80
2022/10/19 00:48:28;;;;;;;18.35;9.15;;;256.50;2252.80;;;;;;5009181;28;19991;-81
2022/10/19 00:50:57;;;;;;;17.70;9.82;;;256.50;2252.80;;;;;;5009291;28;20057;-82
2022/10/19 00:53:26;;;;;;;18.52;9.23;;;256.50;2252.80;;;;;;5003888;28;20017;-79
2022/10/19 00:55:52;;;;;;;13.55;8.10;;;256.30;2252.80;;;;;;5006042;28;20025;-80
2022/10/19 00:58:17;;;;;;;14.82;9.82;;;256.30;2252.80;;;;;;5006157;28;20536;-79
2022/10/19 01:00:43;;;;;;;14.73;9.45;;;256.20;2252.80;;;;;;5009381;28;20025;-80
2022/10/19 01:03:10;;;;;;;;;;;256.10;2252.80;;;;;;5010507;28;20028;-80
2022/10/19 01:05:36;;;;;;;18.67;10.13;;;256.10;2252.80;;;;;;5008042;28;19952;-80
2022/10/19 01:08:01;;;;;;;;;;;256.20;2252.80;;;;;;5004237;28;20106;-80
2022/10/19 01:10:54;;;;;;;18.00;10.43;;;256.20;2252.80;;;;;;5005567;28;19921;-80
2022/10/19 01:13:53;;;;;;;17.83;9.90;;;256.40;2252.80;;;;;;5005796;28;20021;-80
2022/10/19 01:16:31;;;;;;;20.45;10.02;;;256.30;2252.80;;;;;;5001943;28;20033;-80
2022/10/19 01:19:20;;;;;;;20.88;12.32;;;256.10;2252.80;;;;;;5015794;28;20026;-80
2022/10/19 01:22:03;;;;;;;20.30;11.13;;;231.20;2252.80;;;;;;5020006;28;20045;-79
2022/10/19 01:24:56;;;;;;;20.55;10.93;;;231.30;2252.80;;;;;;5008513;28;20045;-80
2022/10/19 01:27:41;;;;;;;20.90;10.45;;;231.30;2252.80;;;;;;5005234;28;20024;-81
2022/10/19 01:30:18;;;;;;;22.30;10.90;;;231.30;2252.80;;;;;;5006071;28;20062;-80
2022/10/19 01:32:59;;;;;;;23.65;11.65;;;231.20;2252.80;;;;;;5005632;28;20018;-81
2022/10/19 01:35:38;;;;;;;19.10;10.45;;;231.20;2252.80;;;;;;5021830;28;20054;-80
2022/10/19 01:38:03;;;;;;;18.20;9.52;;;231.20;2252.80;;;;;;5007055;28;20025;-80
2022/10/19 01:40:53;;;;;;;17.08;10.15;;;231.00;2252.80;;;;;;5024962;28;20518;-80
2022/10/19 01:43:42;;;;;;;17.83;10.43;;;230.90;2252.80;;;;;;5005361;28;20041;-80
2022/10/19 01:46:32;;;;;;;15.80;9.07;;;230.90;2252.80;;;;;;5017648;28;20042;-80
2022/10/19 01:49:07;;;;;;;18.77;10.02;;;230.80;2252.80;;;;;;5020315;28;20068;-80
2022/10/19 01:51:38;;;;;;;26.98;11.77;;;230.80;2252.80;;;;;;5008168;28;20021;-79
2022/10/19 01:54:07;;;;;;;18.90;10.57;;;230.90;2252.80;;;;;;5009856;28;20075;-77
2022/10/19 01:56:34;;;;;;;17.33;8.95;;;230.80;2252.80;;;;;;5011836;28;20063;-80
2022/10/19 01:59:05;;;;;;;18.33;8.77;;;230.60;2252.80;;;;;;5007295;28;20501;-79
2022/10/19 02:01:34;;;;;;;18.35;9.73;;;230.60;2252.80;;;;;;5017514;28;20025;-79
2022/10/19 02:04:02;;;;;;;20.88;10.40;;;230.60;2252.80;;;;;;5027973;28;20617;-80
2022/10/19 02:06:28;;;;;;;19.48;9.75;;;230.50;2252.80;;;;;;5029736;28;20033;-79
2022/10/19 02:08:54;;;;;;;18.33;10.57;;;230.40;2252.80;;;;;;5036249;28;20378;-81
2022/10/19 02:11:22;;;;;;;18.73;11.25;;;230.50;2252.80;;;;;;5035646;28;20037;-80
2022/10/19 02:13:57;;;;;;;19.52;10.32;;;230.60;2252.80;;;;;;5035873;28;20017;-80
2022/10/19 02:16:39;;;;;;;26.40;10.10;;;230.60;2252.80;;;;;;5023980;28;20045;-81
2022/10/19 02:19:07;;;;;;;16.13;10.07;;;230.60;2252.80;;;;;;5021163;28;20054;-80
2022/10/19 02:21:33;;;;;;;18.60;10.93;;;230.50;2252.80;;;;;;5023415;28;20067;-80
2022/10/19 02:23:59;;;;;;;17.75;10.07;;;230.50;2252.80;;;;;;5018873;28;20040;-81
2022/10/19 02:26:25;;;;;;;21.08;10.02;;;230.50;2252.80;;;;;;5035831;28;20471;-80
2022/10/19 02:28:54;;;;;;;18.25;10.70;;;230.60;2252.80;;;;;;5035557;28;20140;-81
2022/10/19 02:31:20;;;;;;;19.60;10.98;;;230.80;2252.80;;;;;;5025892;28;20033;-81
2022/10/19 02:33:46;;;;;;;23.70;12.50;;;230.90;2252.80;;;;;;5030219;28;20120;-80
2022/10/19 02:36:12;;;;;;;25.25;11.48;;;230.90;2252.80;;;;;;5035517;28;20454;-80
2022/10/19 02:38:39;;;;;;;;;;;231.00;2252.80;;;;;;5034841;28;20082;-81
2022/10/19 02:41:04;;;;;;;;;;;230.90;2252.80;;;;;;5035766;28;19905;-80
2022/10/19 02:43:33;;;;;;;27.73;11.50;;;231.00;2252.80;;;;;;5017305;28;19959;-81
2022/10/19 02:46:10;;;;;;;21.67;10.93;;;231.00;2252.80;;;;;;5032931;28;20049;-81
2022/10/19 02:48:36;;;;;;;;;;;231.20;2252.80;;;;;;5020399;28;20032;-80
2022/10/19 02:51:02;;;;;;;16.08;8.50;;;231.30;2252.80;;;;;;5034943;28;20381;-80
2022/10/19 02:53:28;;;;;;;22.20;11.88;;;231.30;2252.80;;;;;;5035354;28;20056;-79
2022/10/19 02:55:54;;;;;;;21.85;13.02;;;256.00;2252.80;;;;;;5035141;28;20382;-80
2022/10/19 02:58:19;;;;;;;;;;;256.20;2252.80;;;;;;5021943;28;20360;-81
2022/10/19 03:00:45;;;;;;;18.77;12.13;;;256.20;2252.80;;;;;;5052972;28;19905;-80
2022/10/19 03:03:11;;;;;;;;;;;256.20;2252.80;;;;;;5035267;28;20509;-80
2022/10/19 03:05:36;;;;;;;21.75;11.20;;;256.30;2252.80;;;;;;5021435;28;19904;-80
2022/10/19 03:08:02;;;;;;;;;;;256.30;2252.80;;;;;;5035558;28;20383;-80
2022/10/19 03:10:28;;;;;;;21.48;11.88;;;256.30;2252.80;;;;;;5035139;28;19916;-80
2022/10/19 03:12:56;;;;;;;;;;;256.40;2252.80;;;;;;5027077;28;20025;-81
2022/10/19 03:15:23;;;;;;;19.70;12.30;;;256.50;2252.80;;;;;;5029318;28;19919;-79
2022/10/19 03:17:52;;;;;;;23.05;11.60;;;256.50;2252.80;;;;;;5034858;28;20017;-80
2022/10/19 03:20:18;;;;;;;20.17;13.10;;;256.60;2252.80;;;;;;5021629;28;20387;-82
2022/10/19 03:22:43;;;;;;;21.38;12.88;;;256.70;2252.80;;;;;;5026017;28;20037;-83
2022/10/19 03:25:09;;;;;;;;;;;256.70;2252.80;;;;;;5023059;28;20568;-80
2022/10/19 03:27:35;;;;;;;20.00;12.73;;;256.70;2252.80;;;;;;5032823;28;19905;-84
2022/10/19 03:30:00;;;;;;;27.70;13.00;;;256.60;2252.80;;;;;;5034639;28;20044;-81
2022/10/19 03:32:26;;;;;;;;;;;256.40;2252.80;;;;;;5035194;28;20074;-80
2022/10/19 03:34:52;;;;;;;24.33;13.80;;;256.50;2252.80;;;;;;5035016;28;19904;-80
2022/10/19 03:37:17;;;;;;;;;;;256.40;2252.80;;;;;;5034994;28;20029;-81
2022/10/19 03:39:43;;;;;;;23.92;13.60;;;256.40;2252.80;;;;;;5029162;28;19973;-81
2022/10/19 03:42:08;;;;;;;;;;;256.10;2252.80;;;;;;5019548;28;20033;-80
2022/10/19 03:44:34;;;;;;;19.65;12.77;;;256.00;2252.80;;;;;;5027640;28;19996;-80
2022/10/19 03:47:00;;;;;;;;;;;256.10;2252.80;;;;;;5034740;28;20419;-80
2022/10/19 03:49:25;;;;;;;19.38;12.82;;;256.20;2252.80;;;;;;5026691;28;19924;-81
2022/10/19 03:51:51;;;;;;;;;;;256.20;2252.80;;;;;;5036041;28;20021;-80
2022/10/19 03:54:17;;;;;;;24.23;13.52;;;256.20;2252.80;;;;;;5038651;28;19912;-80
2022/10/19 03:56:42;;;;;;;;;;;256.20;2252.80;;;;;;5056522;28;20032;-81
2022/10/19 03:59:13;;;;;;;22.17;12.10;;;256.20;2252.80;;;;;;5038078;28;20440;-80
2022/10/19 04:01:41;;;;;;;20.50;13.07;;;256.10;2252.80;;;;;;5038280;28;20028;-81
2022/10/19 04:04:11;;;;;;;17.88;12.45;;;231.30;2252.80;;;;;;5038564;28;20025;-81
2022/10/19 04:06:39;;;;;;;24.25;12.80;;;231.20;2252.80;;;;;;5056083;28;20025;-81
2022/10/19 04:09:06;;;;;;;27.50;12.40;;;231.10;2252.80;;;;;;5056069;28;20360;-81
2022/10/19 04:11:33;;;;;;;21.35;14.00;;;231.10;2252.80;;;;;;5055956;28;20021;-80
2022/10/19 04:13:59;;;;;;;24.52;14.27;;;231.00;2252.80;;;;;;5037988;28;20077;-81
2022/10/19 04:16:27;;;;;;;26.38;12.63;;;230.90;2252.80;;;;;;5037019;28;20041;-81
2022/10/19 04:18:54;;;;;;;21.15;12.75;;;230.90;2252.80;;;;;;5037664;28;20159;-80
2022/10/19 04:21:22;;;;;;;22.90;13.27;;;230.90;2252.80;;;;;;5047585;28;20030;-81
2022/10/19 04:23:49;;;;;;;23.70;14.20;;;231.00;2252.80;;;;;;5049151;28;20028;-81
2022/10/19 04:26:15;;;;;;;21.90;13.23;;;231.10;2252.80;;;;;;5024820;28;20040;-80
2022/10/19 04:28:41;;;;;;;26.48;15.13;;;231.10;2252.80;;;;;;5037730;28;20037;-81
2022/10/19 04:31:07;;;;;;;20.70;13.48;;;231.10;2252.80;;;;;;5023327;28;20554;-81
2022/10/19 04:33:33;;;;;;;26.13;14.13;;;231.10;2252.80;;;;;;5037781;28;20025;-81
2022/10/19 04:36:01;;;;;;;33.30;15.77;;;231.00;2252.80;;;;;;5037707;28;20544;-81
2022/10/19 04:38:28;;;;;;;26.48;14.52;;;230.90;2252.80;;;;;;5028950;28;20128;-81
2022/10/19 04:40:54;;;;;;;28.02;15.65;;;230.90;2252.80;;;;;;5032730;28;20486;-80
2022/10/19 04:43:20;;;;;;;39.05;17.75;;;230.90;2252.80;;;;;;5020281;28;20037;-81
2022/10/19 04:45:46;;;;;;;31.85;16.35;;;231.00;2252.80;;;;;;5026598;28;20045;-81
2022/10/19 04:48:12;;;;;;;;;;;231.10;2252.80;;;;;;5037919;28;20055;-79
2022/10/19 04:50:37;;;;;;;26.30;15.45;;;231.20;2252.80;;;;;;5030178;28;19974;-80
2022/10/19 04:53:03;;;;;;;;;;;231.20;2252.80;;;;;;5030201;28;20587;-81
2022/10/19 04:55:29;;;;;;;24.92;14.02;;;231.20;2252.80;;;;;;5037432;28;19935;-79
2022/10/19 04:57:54;;;;;;;;;;;231.00;2252.80;;;;;;5026374;28;20494;-80
2022/10/19 05:00:20;;;;;;;33.08;15.93;;;230.90;2252.80;;;;;;5033108;28;19905;-81
2022/10/19 05:02:46;;;;;;;;;;;230.90;2252.80;;;;;;5037747;28;20024;-81
2022/10/19 05:05:13;;;;;;;29.92;14.57;;;231.00;2252.80;;;;;;5036265;28;19904;-82
2022/10/19 05:07:39;;;;;;;35.13;17.02;;;231.10;2252.80;;;;;;5024471;28;20479;-80
2022/10/19 05:10:06;;;;;;;27.52;15.90;;;231.20;2252.80;;;;;;5037026;28;20055;-83
2022/10/19 05:12:34;;;;;;;38.35;16.77;;;231.30;2252.80;;;;;;5022293;28;20025;-83
2022/10/19 05:15:00;;;;;;;25.63;14.55;;;231.30;2252.80;;;;;;5037154;28;20439;-80
2022/10/19 05:17:30;;;;;;;36.40;16.83;;;231.30;2252.80;;;;;;5020023;28;20124;-80
2022/10/19 05:19:56;;;;;;;25.85;13.98;;;231.30;2252.80;;;;;;5026623;28;20156;-79
2022/10/19 05:22:23;;;;;;;28.13;15.45;;;256.00;2252.80;;;;;;5018845;28;20033;-79
2022/10/19 05:24:48;;;;;;;30.27;15.38;;;256.10;2252.80;;;;;;5037081;28;20083;-80
2022/10/19 05:27:14;;;;;;;27.15;14.88;;;256.00;2252.80;;;;;;5036286;28;20021;-81
2022/10/19 05:29:39;;;;;;;;;;;256.10;2252.80;;;;;;5023847;28;20025;-80
2022/10/19 05:32:05;;;;;;;29.25;16.00;;;256.20;2252.80;;;;;;5024293;28;19905;-81
2022/10/19 05:34:31;;;;;;;;;;;256.10;2252.80;;;;;;5035507;28;20092;-80
2022/10/19 05:36:56;;;;;;;22.65;14.93;;;256.10;2252.80;;;;;;5035746;28;19954;-80
2022/10/19 05:39:22;;;;;;;;;;;256.10;2252.80;;;;;;5034005;28;20471;-80
2022/10/19 05:41:48;;;;;;;27.80;14.70;;;256.20;2252.80;;;;;;5020642;28;19905;-82
2022/10/19 05:44:19;;;;;;;25.42;15.38;;;256.30;2252.80;;;;;;5016488;28;20037;-80
2022/10/19 05:46:46;;;;;;;30.73;16.58;;;256.40;2252.80;;;;;;5012169;28;20193;-80
2022/10/19 05:49:12;;;;;;;27.70;16.38;;;256.50;2252.80;;;;;;5009645;28;20090;-80
2022/10/19 05:51:38;;;;;;;30.35;15.00;;;256.60;2252.80;;;;;;5002355;28;20052;-80
2022/10/19 05:54:05;;;;;;;33.17;17.33;;;256.60;2252.80;;;;;;5013039;28;20075;-80
2022/10/19 05:56:31;;;;;;;25.25;16.83;;;256.70;2252.80;;;;;;5015856;28;20390;-80
2022/10/19 05:59:00;;;;;;;32.40;17.10;;;256.70;2252.80;;;;;;5005235;28;20029;-79
2022/10/19 06:01:28;;;;;;;31.00;18.17;;;256.80;2252.80;;;;;;5025518;28;20030;-79
2022/10/19 06:03:56;;;;;;;39.65;20.92;;;256.90;2252.80;;;;;;5013978;28;20018;-80
2022/10/19 06:06:22;;;;;;;28.08;18.08;;;256.90;2252.80;;;;;;5020057;28;20025;-81
2022/10/19 06:08:48;;;;;;;30.58;18.75;;;281.70;2278.40;;;;;;5036312;28;20028;-81
2022/10/19 06:11:20;;;;;;;29.73;18.27;;;281.70;2278.40;;;;;;5037098;28;20095;-81
2022/10/19 06:13:49;;;;;;;31.55;18.75;;;281.80;2278.40;;;;;;5015917;28;20021;-80
2022/10/19 06:16:17;;;;;;;27.70;19.00;;;281.80;2278.40;;;;;;5029866;28;20033;-78
2022/10/19 06:18:43;;;;;;;29.95;18.50;;;281.80;2278.40;;;;;;5015902;28;20072;-79
2022/10/19 06:21:17;;;;;;;38.80;22.17;;;281.90;2278.40;;;;;;5028943;28;20064;-77
2022/10/19 06:23:43;;;;;;;32.05;20.63;;;282.00;2278.40;;;;;;5018759;28;20025;-79
2022/10/19 06:26:11;;;;;;;42.15;24.30;;;282.20;2278.40;;;;;;5035589;28;20074;-79
2022/10/19 06:28:39;;;;;;;40.53;25.73;;;282.30;2278.40;;;;;;5016718;28;20171;-81
2022/10/19 06:31:05;;;;;;;46.33;28.08;;;282.20;2278.40;;;;;;5015760;28;20613;-81
2022/10/19 06:33:31;;;;;;;54.85;29.23;;;282.30;2278.40;;;;;;5017681;28;20032;-80
2022/10/19 06:36:18;;;;;;;47.70;28.08;;;282.40;2278.40;;;;;;5003261;28;20034;-80
2022/10/19 06:38:44;;;;;;;42.30;28.55;;;282.50;2278.40;;;;;;5006909;28;20037;-77
2022/10/19 06:41:10;;;;;;;46.10;29.80;;;307.20;2304.00;;;;;;5028141;28;20022;-77
2022/10/19 06:43:36;;;;;;;45.17;29.15;;;282.50;2278.40;;;;;;5000755;28;20084;-80
2022/10/19 06:46:04;;;;;;;52.92;32.00;;;282.50;2278.40;;;;;;5026140;28;20442;-78
2022/10/19 06:48:30;;;;;;;46.88;29.05;;;307.20;2304.00;;;;;;5017168;28;20457;-78
2022/10/19 06:51:06;;;;;;;48.53;29.48;;;307.30;2304.00;;;;;;5040421;28;20112;-78
2022/10/19 06:53:33;;;;;;;42.55;23.17;;;307.30;2304.00;;;;;;5013220;28;20118;-81
2022/10/19 06:56:00;;;;;;;51.65;28.27;;;307.40;2304.00;;;;;;5034915;28;20032;-83
2022/10/19 06:58:26;;;;;;;70.78;42.45;;;307.50;2304.00;;;;;;5035324;28;20508;-82
2022/10/19 07:00:59;;;;;;;50.13;33.05;;;307.60;2304.00;;;;;;5021817;28;20041;-81
2022/10/19 07:03:26;;;;;;;42.05;28.08;;;307.60;2304.00;;;;;;5002099;28;20554;-81
2022/10/19 07:05:57;;;;;;;43.13;27.55;;;307.60;2304.00;;;;;;5015596;28;20069;-81
2022/10/19 07:08:24;;;;;;;51.03;30.95;;;307.80;2304.00;;;;;;5033963;28;20036;-82
2022/10/19 07:10:52;;;;;;;50.75;32.33;;;307.90;2304.00;;;;;;5035158;28;20076;-81
2022/10/19 07:13:18;;;;;;;45.75;31.50;;;307.90;2304.00;;;;;;5034987;28;20075;-79
2022/10/19 07:15:43;;;;;;;52.63;30.20;;;308.00;2304.00;;;;;;5034409;28;20196;-78
2022/10/19 07:18:09;;;;;;;43.47;28.98;;;308.10;2304.00;;;;;;5032267;28;20094;-80
2022/10/19 07:20:35;;;;;;;55.92;33.15;;;332.80;2329.60;;;;;;5022373;28;20020;-82
2022/10/19 07:23:01;;;;;;;59.65;35.13;;;332.90;2329.60;;;;;;5034764;28;20025;-78
2022/10/19 07:25:27;;;;;;;56.75;35.58;;;333.00;2329.60;;;;;;5038335;28;20048;-77
2022/10/19 07:27:53;;;;;;;48.97;33.67;;;333.10;2329.60;;;;;;5038238;28;20106;-78
2022/10/19 07:30:19;;;;;;;54.42;34.50;;;333.30;2329.60;;;;;;5038371;28;20051;-78
2022/10/19 07:32:45;;;;;;;51.53;28.70;;;333.30;2329.60;;;;;;5038626;28;20467;-79
2022/10/19 07:35:10;;;;;;;47.75;28.73;;;333.40;2329.60;;;;;;5038231;28;20031;-79
2022/10/19 07:37:36;;;;;;;53.67;35.22;;;333.50;2329.60;;;;;;5055687;28;20020;-81
2022/10/19 07:40:03;;;;;;;44.97;31.38;;;333.70;2329.60;;;;;;5038339;28;20021;-79
2022/10/19 07:42:31;;;;;;;41.38;29.35;;;333.70;2329.60;;;;;;5045924;28;20025;-79
2022/10/19 07:44:57;;;;;;;52.35;29.33;;;358.40;2329.60;;;;;;5038012;28;20371;-80
2022/10/19 07:47:23;;;;;;;40.95;25.65;;;358.40;2329.60;;;;;;5029076;28;20044;-77
2022/10/19 07:49:48;;;;;;;47.88;25.63;;;358.50;2329.60;;;;;;5018371;28;20037;-78
2022/10/19 07:52:14;;;;;;;42.35;26.10;;;358.50;2329.60;;;;;;5038075;28;20104;-78
2022/10/19 07:54:40;;;;;;;41.13;25.85;;;358.60;2329.60;;;;;;5025348;28;20313;-79
2022/10/19 07:57:06;;;;;;;45.28;25.98;;;358.60;2329.60;;;;;;5036172;28;20021;-78
2022/10/19 07:59:33;;;;;;;38.45;25.75;;;358.60;2329.60;;;;;;5044936;28;20022;-78
2022/10/19 08:02:01;;;;;;;42.17;29.67;;;358.70;2329.60;;;;;;5052252;28;20021;-79
2022/10/19 08:04:27;;;;;;;42.15;24.98;;;358.70;2329.60;;;;;;5055392;28;20029;-80
2022/10/19 08:06:52;;;;;;;41.13;25.38;;;358.80;2329.60;;;;;;5036745;28;20021;-78
2022/10/19 08:09:18;;;;;;;42.38;24.95;;;358.90;2329.60;;;;;;5024554;28;20032;-77
2022/10/19 08:11:44;;;;;;;43.60;24.92;;;359.00;2329.60;;;;;;5037599;28;20551;-79
2022/10/19 08:14:10;;;;;;;47.10;26.05;;;359.00;2329.60;;;;;;5037510;28;20027;-79
2022/10/19 08:16:43;;;;;;;33.22;22.23;;;359.00;2329.60;;;;;;5026362;28;20041;-80
2022/10/19 08:19:11;;;;;;;34.95;22.00;;;359.10;2329.60;;;;;;5035229;28;20035;-77
2022/10/19 08:21:38;;;;;;;33.58;23.08;;;359.20;2329.60;;;;;;5037171;28;20029;-78
2022/10/19 08:24:05;;;;;;;35.70;22.73;;;359.20;2329.60;;;;;;5055189;28;20075;-76
2022/10/19 08:26:33;;;;;;;38.20;21.80;;;384.00;2329.60;;;;;;5036836;28;20021;-79
2022/10/19 08:29:05;;;;;;;35.30;20.60;;;384.00;2329.60;;;;;;5037082;28;20031;-78
2022/10/19 08:31:31;;;;;;;38.17;21.00;;;384.10;2329.60;;;;;;5054798;28;20029;-76
2022/10/19 08:33:56;;;;;;;35.35;22.33;;;384.20;2329.60;;;;;;5036723;28;20411;-85
2022/10/19 08:36:23;;;;;;;33.15;23.13;;;384.30;2329.60;;;;;;5023275;28;20027;-76
2022/10/19 08:38:49;;;;;;;34.65;22.98;;;384.40;2329.60;;;;;;5036004;28;20116;-76
2022/10/19 08:41:21;;;;;;;37.42;22.63;;;384.40;2329.60;;;;;;5054647;28;20017;-77
2022/10/19 08:44:25;;;;;;;34.83;22.40;;;384.50;2329.60;;;;;;5004281;28;20018;-78
2022/10/19 08:46:54;;;;;;;38.40;22.35;;;384.60;2329.60;;;;;;4973303;28;20055;-78
2022/10/19 08:49:24;;;;;;;29.85;20.73;;;384.70;2329.60;;;;;;4957313;28;20043;-77
2022/10/19 08:52:03;;;;;;;38.75;21.27;;;384.90;2329.60;;;;;;4957320;28;20555;-77
2022/10/19 08:54:48;;;;;;;39.25;24.90;;;384.90;2329.60;;;;;;4957147;28;20035;-77
2022/10/19 08:57:41;;;;;;;47.03;32.22;;;409.70;2355.20;;;;;;4968179;28;20498;-79
2022/10/19 09:00:56;;;;;;;34.53;24.30;;;409.90;2355.20;;;;;;4969436;28;20039;-76
2022/10/19 09:03:50;;;;;;;36.03;20.15;;;410.10;2355.20;;;;;;4897320;29;20061;-78
2022/10/19 09:06:27;;;;;;;24.48;17.70;;;410.30;2355.20;;;;;;4896254;29;20041;-78
2022/10/19 09:08:55;;;;;;;36.15;20.55;;;410.50;2355.20;;;;;;4896304;29;20041;-77
2022/10/19 09:11:29;;;;;;;31.38;18.50;;;435.30;2355.20;;;;;;4896953;29;20044;-78
2022/10/19 09:14:11;;;;;;;31.52;18.92;;;435.50;2355.20;;;;;;4897673;29;20096;-80
2022/10/19 09:16:37;;;;;;;37.63;23.40;;;435.70;2355.20;;;;;;4896697;29;20044;-79
2022/10/19 09:19:12;;;;;;;27.55;17.58;;;435.80;2355.20;;;;;;4896844;29;20450;-81
2022/10/19 09:21:53;;;;;;;28.63;17.42;;;436.00;2355.20;;;;;;4896539;29;20028;-79
2022/10/19 09:24:28;;;;;;;49.10;25.77;;;460.80;2380.80;;;;;;4941215;29;20035;-79
2022/10/19 09:26:57;;;;;;;38.88;18.25;;;460.90;2380.80;;;;;;4941320;28;20559;-79
2022/10/19 09:29:48;;;;;;;33.55;21.35;;;461.10;2380.80;;;;;;4957252;28;20105;-85
2022/10/19 09:32:19;;;;;;;32.75;20.35;;;461.20;2380.80;;;;;;4956996;28;20027;-78
2022/10/19 09:34:51;;;;;;;25.90;16.65;;;461.40;2380.80;;;;;;4957342;28;20500;-78
2022/10/19 09:37:19;;;;;;;30.35;17.52;;;461.50;2329.60;;;;;;4973219;28;20019;-79
2022/10/19 09:39:45;;;;;;;27.48;16.70;;;461.70;2252.80;;;;;;5002238;28;20051;-87
2022/10/19 09:42:35;;;;;;;24.70;17.17;;;486.40;2124.80;;;;;;5005692;28;20109;-80
2022/10/19 09:45:18;;;;;;;34.08;20.67;;;486.50;2073.60;;;;;;5029711;28;20029;-85
2022/10/19 09:47:47;;;;;;;22.00;15.63;;;486.70;2048.00;;;;;;5006737;28;20034;-80
2022/10/19 09:50:24;;;;;;;25.05;16.20;;;486.90;2048.00;;;;;;5025886;28;20049;-80
2022/10/19 09:53:13;;;;;;;30.10;16.60;;;487.00;1971.20;;;;;;5002571;28;20030;-84
2022/10/19 09:55:44;;;;;;;37.13;18.05;;;487.10;1945.60;;;;;;5001074;28;20022;-81
2022/10/19 09:58:13;;;;;;;24.73;15.52;;;487.30;1971.20;;;;;;5020466;28;20032;-80
2022/10/19 10:00:49;;;;;;;24.27;14.93;;;512.10;1894.40;;;;;;5021080;28;20026;-81
2022/10/19 10:03:27;;;;;;;;;;;512.20;1920.00;;;;;;5003631;28;20022;-80
2022/10/19 10:05:55;;;;;;;22.35;14.00;;;512.50;1920.00;;;;;;5028122;28;19913;-80
2022/10/19 10:08:24;;;;;;;23.55;13.65;;;512.70;1868.80;;;;;;5024695;28;20033;-81
2022/10/19 10:11:15;;;;;;;26.33;16.17;;;512.80;1894.40;;;;;;5025901;28;20470;-80
2022/10/19 10:13:47;;;;;;;25.60;15.13;;;537.70;1843.20;;;;;;4998169;28;20022;-82
2022/10/19 10:16:18;;;;;;;27.45;13.27;;;538.00;1843.20;;;;;;5000759;28;20026;-79
2022/10/19 10:18:55;;;;;;;22.30;13.75;;;538.10;1817.60;;;;;;5017143;28;20056;-81
2022/10/19 10:21:31;;;;;;;20.40;13.77;;;538.20;1792.00;;;;;;5008736;28;20674;-81
2022/10/19 10:23:59;;;;;;;23.25;13.68;;;538.20;1792.00;;;;;;5005919;28;20025;-81
2022/10/19 10:26:25;;;;;;;30.23;18.73;;;563.20;1817.60;;;;;;5023022;28;20053;-82
2022/10/19 10:28:51;;;;;;;21.05;14.00;;;563.30;1817.60;;;;;;5025793;28;20119;-81
2022/10/19 10:31:24;;;;;;;22.27;14.23;;;563.40;1843.20;;;;;;5034728;28;20033;-81
2022/10/19 10:34:02;;;;;;;31.52;14.45;;;563.50;1792.00;;;;;;5034571;28;20531;-80
2022/10/19 10:36:30;;;;;;;24.17;13.18;;;563.60;1792.00;;;;;;5034941;28;20021;-80
2022/10/19 10:39:06;;;;;;;19.52;13.85;;;563.80;1766.40;;;;;;5034609;28;20028;-80
2022/10/19 10:41:38;;;;;;;24.60;15.23;;;563.80;1766.40;;;;;;5049857;28;20057;-81
2022/10/19 10:44:17;;;;;;;25.45;14.90;;;564.10;1766.40;;;;;;5041831;28;20482;-81
2022/10/19 10:47:00;;;;;;;30.38;16.77;;;588.80;1740.80;;;;;;5034257;28;20059;-80
2022/10/19 10:49:34;;;;;;;29.98;15.52;;;589.00;1766.40;;;;;;5052315;28;20112;-80
2022/10/19 10:52:05;;;;;;;24.35;19.15;;;589.10;1689.60;;;;;;5034819;28;20017;-81
2022/10/19 10:54:32;;;;;;;17.70;13.55;;;589.20;1715.20;;;;;;5034305;28;20021;-81
2022/10/19 10:57:10;;;;;;;20.30;10.85;;;589.30;1689.60;;;;;;5052190;28;20025;-80
2022/10/19 10:59:41;;;;;;;20.73;13.65;;;589.20;1638.40;;;;;;5034557;28;20025;-80
2022/10/19 11:02:10;;;;;;;21.33;12.00;;;589.50;1612.80;;;;;;5020531;28;20021;-81
2022/10/19 11:04:41;;;;;;;28.92;12.40;;;589.50;1612.80;;;;;;5052265;28;20032;-81
2022/10/19 11:07:27;;;;;;;17.85;12.60;;;589.70;1612.80;;;;;;5034132;28;20124;-80
2022/10/19 11:10:01;;;;;;;22.05;12.52;;;589.70;1638.40;;;;;;5022686;28;20041;-81
2022/10/19 11:12:40;;;;;;;21.55;13.05;;;614.40;1638.40;;;;;;5033392;28;20023;-81
2022/10/19 11:15:21;;;;;;;20.17;13.10;;;614.40;1612.80;;;;;;5051997;28;20036;-82
2022/10/19 11:18:13;;;;;;;19.73;14.00;;;589.30;1689.60;;;;;;5025314;28;20029;-81
2022/10/19 11:20:47;;;;;;;18.77;13.68;;;564.10;1792.00;;;;;;5020223;28;20021;-80
2022/10/19 11:23:25;;;;;;;30.00;15.35;;;563.80;1843.20;;;;;;5033922;28;20037;-82
2022/10/19 11:26:09;;;;;;;25.40;15.55;;;563.60;1920.00;;;;;;5051983;28;20014;-79
2022/10/19 11:28:47;;;;;;;20.48;14.40;;;563.30;2048.00;;;;;;5040501;28;20025;-79
2022/10/19 11:31:31;;;;;;;24.65;14.73;;;538.40;2124.80;;;;;;5033222;28;20045;-80
2022/10/19 11:34:23;;;;;;;29.40;14.43;;;538.20;2176.00;;;;;;5051869;28;20104;-77
2022/10/19 11:37:23;;;;;;;33.45;16.70;;;538.10;2252.80;;;;;;4935767;29;20040;-81
2022/10/19 11:40:20;;;;;;;28.70;16.90;;;538.00;2329.60;;;;;;4916722;29;20513;-77
2022/10/19 11:43:36;;;;;;;43.47;25.60;;;537.90;2355.20;;;;;;4920925;29;20119;-82
2022/10/19 11:46:15;;;;;;;107.55;51.25;;;537.80;2406.40;;;;;;4913294;29;20565;-78
2022/10/19 11:49:11;;;;;;;35.97;22.90;;;537.80;2406.40;;;;;;4913651;29;20119;-81
2022/10/19 11:52:03;;;;;;;33.67;20.37;;;537.80;2406.40;;;;;;4913881;29;20051;-78
2022/10/19 11:54:43;;;;;;;88.75;43.53;;;537.70;2406.40;;;;;;4910337;29;20358;-79
2022/10/19 11:57:11;;;;;;;60.40;33.58;;;537.70;2406.40;;;;;;4896610;29;20415;-81
2022/10/19 12:00:12;;;;;;;44.53;25.05;;;537.60;2406.40;;;;;;4910634;29;20029;-80
2022/10/19 12:03:08;;;;;;;28.15;17.63;;;537.60;2406.40;;;;;;4912575;29;20039;-80
2022/10/19 12:06:11;;;;;;;25.45;16.33;;;512.90;2380.80;;;;;;4910251;29;20025;-80
2022/10/19 12:09:07;;;;;;;25.38;16.00;;;512.90;2380.80;;;;;;4893446;29;20039;-80
2022/10/19 12:12:00;;;;;;;29.55;18.25;;;512.90;2380.80;;;;;;4917579;29;20036;-81
2022/10/19 12:14:30;;;;;;;37.03;20.90;;;512.80;2380.80;;;;;;4931406;29;20044;-78
2022/10/19 12:17:04;;;;;;;28.48;18.92;;;512.80;2380.80;;;;;;4972933;28;20057;-79
2022/10/19 12:19:37;;;;;;;29.10;17.95;;;512.80;2380.80;;;;;;4976634;28;20026;-79
2022/10/19 12:22:05;;;;;;;27.50;16.17;;;512.80;2380.80;;;;;;5004887;28;20041;-82
2022/10/19 12:24:33;;;;;;;23.02;16.27;;;512.80;2380.80;;;;;;5003176;28;20170;-81
2022/10/19 12:27:00;;;;;;;39.38;23.08;;;512.70;2380.80;;;;;;5039730;28;20030;-80
2022/10/19 12:29:32;;;;;;;38.60;19.38;;;512.60;2380.80;;;;;;5007281;28;20034;-79